createdAt,value
2023-05-20T00:02:21.730Z,90.60
2023-05-20T00:04:53.209Z,90.50
2023-05-20T00:07:22.928Z,90.30
2023-05-20T00:09:53.014Z,90.10
2023-05-20T00:12:22.680Z,89.90
2023-05-20T00:14:53.745Z,89.80
2023-05-20T00:17:24.241Z,89.50
2023-05-20T00:19:53.816Z,89.30
2023-05-20T00:22:23.594Z,89.20
2023-05-20T00:24:53.260Z,89.10
2023-05-20T00:27:22.839Z,88.60
2023-05-20T00:29:52.496Z,88.40
2023-05-20T00:32:22.213Z,88.10
2023-05-20T00:35:02.096Z,87.90
2023-05-20T00:37:31.836Z,87.60
2023-05-20T00:40:01.468Z,87.10
2023-05-20T00:42:34.043Z,86.60
2023-05-20T00:45:05.985Z,86.40
2023-05-20T00:47:38.288Z,86.10
2023-05-20T00:50:08.925Z,85.70
2023-05-20T00:52:39.410Z,86.30
2023-05-20T00:55:11.846Z,85.40
2023-05-20T00:57:41.498Z,85.30
2023-05-20T01:00:12.532Z,85.20
2023-05-20T01:02:42.450Z,84.90
2023-05-20T01:05:12.387Z,84.70
2023-05-20T01:07:42.060Z,84.50
2023-05-20T01:10:12.293Z,84.40
2023-05-20T01:12:51.546Z,84.40
2023-05-20T01:15:23.421Z,83.90
2023-05-20T01:17:59.790Z,83.30
2023-05-20T01:20:34.168Z,82.40
2023-05-20T01:23:04.326Z,79.80
2023-05-20T01:25:34.271Z,79.40
2023-05-20T01:28:04.200Z,79.30
2023-05-20T01:30:39.961Z,79.00
2023-05-20T01:33:16.345Z,78.90
2023-05-20T01:35:46.190Z,78.80
2023-05-20T01:38:17.762Z,78.30
2023-05-20T01:40:48.572Z,78.40
2023-05-20T01:43:20.486Z,78.20
2023-05-20T01:45:50.224Z,78.10
2023-05-20T01:48:19.954Z,77.50
2023-05-20T01:50:49.711Z,77.40
2023-05-20T01:53:19.488Z,77.00
2023-05-20T01:55:49.086Z,76.30
2023-05-20T01:58:21.608Z,76.20
2023-05-20T02:00:55.141Z,76.20
2023-05-20T02:03:24.832Z,75.90
2023-05-20T02:05:54.550Z,75.30
2023-05-20T02:08:24.226Z,74.60
2023-05-20T02:10:53.915Z,73.70
2023-05-20T02:13:23.530Z,73.60
2023-05-20T02:15:53.767Z,73.20
2023-05-20T02:18:24.203Z,73.20
2023-05-20T02:20:54.115Z,73.00
2023-05-20T02:23:23.800Z,73.00
2023-05-20T02:25:53.620Z,72.90
2023-05-20T02:28:23.204Z,72.80
2023-05-20T02:30:55.904Z,72.90
2023-05-20T02:33:25.590Z,72.40
2023-05-20T02:35:55.365Z,71.80
2023-05-20T02:38:24.995Z,71.80
2023-05-20T02:40:54.529Z,71.30
2023-05-20T02:43:24.265Z,70.10
2023-05-20T02:45:53.868Z,69.80
2023-05-20T02:48:23.707Z,68.20
2023-05-20T02:50:54.865Z,68.50
2023-05-20T02:53:26.531Z,67.90
2023-05-20T02:55:56.204Z,67.40
2023-05-20T02:58:28.014Z,67.30
2023-05-20T03:00:59.337Z,67.20
2023-05-20T03:03:29.716Z,67.20
2023-05-20T03:05:59.419Z,67.30
2023-05-20T03:08:29.228Z,67.40
2023-05-20T03:10:58.902Z,67.30
2023-05-20T03:13:28.540Z,67.50
2023-05-20T03:15:58.270Z,66.90
2023-05-20T03:18:27.950Z,67.20
2023-05-20T03:20:58.041Z,66.60
2023-05-20T03:23:27.682Z,66.60
2023-05-20T03:25:57.651Z,66.50
2023-05-20T03:28:27.591Z,66.40
2023-05-20T03:30:57.432Z,66.20
2023-05-20T03:33:27.948Z,65.10
2023-05-20T03:35:57.569Z,63.90
2023-05-20T03:38:27.336Z,64.10
2023-05-20T03:40:56.883Z,64.20
2023-05-20T03:43:27.231Z,63.70
2023-05-20T03:45:56.854Z,64.00
2023-05-20T03:48:26.713Z,63.70
2023-05-20T03:50:57.229Z,62.80
2023-05-20T03:53:27.172Z,62.60
2023-05-20T03:55:56.770Z,62.90
2023-05-20T03:58:26.926Z,62.50
2023-05-20T04:00:59.717Z,62.40
2023-05-20T04:03:30.653Z,61.90
2023-05-20T04:06:00.396Z,61.00
2023-05-20T04:08:29.965Z,60.70
2023-05-20T04:10:59.951Z,60.90
2023-05-20T04:13:29.627Z,60.70
2023-05-20T04:15:59.316Z,60.90
2023-05-20T04:18:31.597Z,61.30
2023-05-20T04:21:03.315Z,59.40
2023-05-20T04:23:32.907Z,59.30
2023-05-20T04:26:03.988Z,59.40
2023-05-20T04:28:33.646Z,59.30
2023-05-20T04:31:07.058Z,59.50
2023-05-20T04:33:43.436Z,59.50
2023-05-20T04:36:17.706Z,59.40
2023-05-20T04:38:47.737Z,59.30
2023-05-20T04:41:17.770Z,56.80
2023-05-20T04:43:50.199Z,56.00
2023-05-20T04:46:20.455Z,56.10
2023-05-20T04:48:50.429Z,56.90
2023-05-20T04:51:20.749Z,57.00
2023-05-20T04:53:52.548Z,57.20
2023-05-20T04:56:22.533Z,57.00
2023-05-20T04:58:52.220Z,56.90
2023-05-20T05:01:22.242Z,57.20
2023-05-20T05:03:51.990Z,56.70
2023-05-20T05:06:21.630Z,56.40
2023-05-20T05:08:53.794Z,55.60
2023-05-20T05:11:23.435Z,55.60
2023-05-20T05:13:53.101Z,56.10
2023-05-20T05:16:25.773Z,55.70
2023-05-20T05:18:57.775Z,53.70
2023-05-20T05:21:27.440Z,53.70
2023-05-20T05:23:58.373Z,53.80
2023-05-20T05:26:28.294Z,54.20
2023-05-20T05:29:00.368Z,54.40
2023-05-20T05:31:32.799Z,53.60
2023-05-20T05:34:02.464Z,52.40
2023-05-20T05:36:34.327Z,52.60
2023-05-20T05:39:03.950Z,52.50
2023-05-20T05:41:33.649Z,53.00
2023-05-20T05:44:03.381Z,53.30
2023-05-20T05:46:36.059Z,53.60
2023-05-20T05:49:05.850Z,53.80
2023-05-20T05:51:38.825Z,53.80
2023-05-20T05:54:08.685Z,53.90
2023-05-20T05:56:38.263Z,54.00
2023-05-20T05:59:08.078Z,53.40
2023-05-20T06:01:38.989Z,53.10
2023-05-20T06:04:08.713Z,53.10
2023-05-20T06:06:38.867Z,53.10
2023-05-20T06:09:08.587Z,52.40
2023-05-20T06:11:38.224Z,51.20
2023-05-20T06:14:07.824Z,49.40
2023-05-20T06:16:38.075Z,50.20
2023-05-20T06:19:10.744Z,50.00
2023-05-20T06:21:40.445Z,50.10
2023-05-20T06:24:10.043Z,50.20
2023-05-20T06:26:39.791Z,50.70
2023-05-20T06:29:09.384Z,48.80
2023-05-20T06:31:39.045Z,48.10
2023-05-20T06:34:08.799Z,48.20
2023-05-20T06:36:38.381Z,48.50
2023-05-20T06:39:13.837Z,47.90
2023-05-20T06:41:43.454Z,48.50
2023-05-20T06:44:13.200Z,48.80
2023-05-20T06:46:42.870Z,49.30
2023-05-20T06:49:12.767Z,49.40
2023-05-20T06:51:43.134Z,49.00
2023-05-20T06:54:12.927Z,49.40
2023-05-20T06:56:44.635Z,49.60
2023-05-20T06:59:14.267Z,48.90
2023-05-20T07:01:44.025Z,49.80
2023-05-20T07:04:13.762Z,49.10
2023-05-20T07:06:44.208Z,49.20
2023-05-20T07:09:13.927Z,49.30
2023-05-20T07:11:43.448Z,49.50
2023-05-20T07:14:13.177Z,48.50
2023-05-20T07:16:42.839Z,48.90
2023-05-20T07:19:12.502Z,48.50
2023-05-20T07:21:42.269Z,47.80
2023-05-20T07:24:11.943Z,47.80
2023-05-20T07:26:43.575Z,47.90
2023-05-20T07:29:13.231Z,47.50
2023-05-20T07:31:42.882Z,46.80
2023-05-20T07:34:14.665Z,47.60
2023-05-20T07:36:45.404Z,47.60
2023-05-20T07:39:16.173Z,47.90
2023-05-20T07:41:45.820Z,47.80
2023-05-20T07:44:15.648Z,47.10
2023-05-20T07:46:45.381Z,44.70
2023-05-20T07:49:15.390Z,45.80
2023-05-20T07:51:48.928Z,45.30
2023-05-20T07:54:18.689Z,45.60
2023-05-20T07:56:48.344Z,46.20
2023-05-20T07:59:18.030Z,46.50
2023-05-20T08:01:47.639Z,46.60
2023-05-20T08:04:17.286Z,44.60
2023-05-20T08:06:47.439Z,45.10
2023-05-20T08:09:17.469Z,45.70
2023-05-20T08:11:47.768Z,44.60
2023-05-20T08:14:17.611Z,45.40
2023-05-20T08:16:47.408Z,46.00
2023-05-20T08:19:17.193Z,46.10
2023-05-20T08:21:46.913Z,44.40
2023-05-20T08:24:16.629Z,43.40
2023-05-20T08:26:46.324Z,43.20
2023-05-20T08:29:15.962Z,43.80
2023-05-20T08:31:47.394Z,44.10
2023-05-20T08:34:17.202Z,44.30
2023-05-20T08:36:47.801Z,44.00
2023-05-20T08:39:17.525Z,44.40
2023-05-20T08:41:50.048Z,44.70
2023-05-20T08:44:21.570Z,44.90
2023-05-20T08:46:51.915Z,44.90
2023-05-20T08:49:23.045Z,44.60
2023-05-20T08:51:53.470Z,44.20
2023-05-20T08:54:25.630Z,43.70
2023-05-20T08:56:55.793Z,44.20
2023-05-20T08:59:25.625Z,44.10
2023-05-20T09:01:55.245Z,44.30
2023-05-20T09:04:24.956Z,44.60
2023-05-20T09:06:54.850Z,45.20
2023-05-20T09:09:25.261Z,44.90
2023-05-20T09:11:54.851Z,44.70
2023-05-20T09:14:25.359Z,44.10
2023-05-20T09:16:57.664Z,44.60
2023-05-20T09:19:28.253Z,45.40
2023-05-20T09:21:57.994Z,45.60
2023-05-20T09:24:28.536Z,46.20
2023-05-20T09:26:59.212Z,45.50
2023-05-20T09:29:29.102Z,46.30
2023-05-20T09:31:59.367Z,46.00
2023-05-20T09:34:29.136Z,45.70
2023-05-20T09:37:03.582Z,45.20
2023-05-20T09:39:41.695Z,45.20
2023-05-20T09:42:37.634Z,45.20
2023-05-20T09:45:13.989Z,45.20
2023-05-20T09:47:45.394Z,45.20
2023-05-20T09:50:18.186Z,45.50
2023-05-20T09:52:49.178Z,45.10
2023-05-20T09:55:21.068Z,44.80
2023-05-20T09:57:50.952Z,45.30
2023-05-20T10:00:21.156Z,44.70
2023-05-20T10:02:55.225Z,45.60
2023-05-20T10:05:32.944Z,45.80
2023-05-20T10:08:41.888Z,46.30
2023-05-20T10:11:50.683Z,46.40
2023-05-20T10:14:48.592Z,45.80
2023-05-20T10:17:41.366Z,46.30
2023-05-20T10:20:13.730Z,46.60
2023-05-20T10:22:43.603Z,46.80
2023-05-20T10:25:27.006Z,47.00
2023-05-20T10:28:12.755Z,47.00
2023-05-20T10:30:53.011Z,47.00
2023-05-20T10:33:22.742Z,46.60
2023-05-20T10:35:56.952Z,46.60
2023-05-20T10:38:26.704Z,47.10
2023-05-20T10:40:56.402Z,47.40
2023-05-20T10:43:30.711Z,47.80
2023-05-20T10:46:04.870Z,48.00
2023-05-20T10:48:35.822Z,48.30
2023-05-20T10:51:06.578Z,48.50
2023-05-20T10:53:49.060Z,48.80
2023-05-20T10:56:25.055Z,49.00
2023-05-20T10:58:56.364Z,49.20
2023-05-20T11:01:30.575Z,49.40
2023-05-20T11:04:02.519Z,49.60
2023-05-20T11:06:33.305Z,49.80
2023-05-20T11:09:10.688Z,50.00
2023-05-20T11:11:40.461Z,50.20
2023-05-20T11:14:10.195Z,50.30
2023-05-20T11:16:39.883Z,50.50
2023-05-20T11:19:18.343Z,50.90
2023-05-20T11:21:52.399Z,51.10
2023-05-20T11:24:32.951Z,51.10
2023-05-20T11:27:04.399Z,51.30
2023-05-20T11:29:34.161Z,51.60
2023-05-20T11:32:04.369Z,51.90
2023-05-20T11:34:39.661Z,52.20
2023-05-20T11:37:13.438Z,52.30
2023-05-20T11:39:43.103Z,52.40
2023-05-20T11:42:12.831Z,52.70
2023-05-20T11:44:46.994Z,53.20
2023-05-20T11:47:19.261Z,53.70
2023-05-20T11:49:51.591Z,53.70
2023-05-20T11:52:21.734Z,53.70
2023-05-20T11:54:55.813Z,53.90
2023-05-20T11:57:25.491Z,53.70
2023-05-20T11:59:55.189Z,53.90
2023-05-20T12:02:25.023Z,54.10
2023-05-20T12:04:54.774Z,53.80
2023-05-20T12:07:25.102Z,53.80
2023-05-20T12:09:54.757Z,53.40
2023-05-20T12:12:24.456Z,53.30
2023-05-20T12:14:54.175Z,52.80
2023-05-20T12:17:23.904Z,53.00
2023-05-20T12:19:53.563Z,53.10
2023-05-20T12:22:23.151Z,53.20
2023-05-20T12:24:54.725Z,53.30
2023-05-20T12:27:25.411Z,53.40
2023-05-20T12:29:55.074Z,53.50
2023-05-20T12:32:26.828Z,53.70
2023-05-20T12:34:56.523Z,53.80
2023-05-20T12:37:26.376Z,53.90
2023-05-20T12:39:56.290Z,54.00
2023-05-20T12:42:25.967Z,54.10
2023-05-20T12:44:55.807Z,54.30
2023-05-20T12:47:25.546Z,54.40
2023-05-20T12:49:55.911Z,54.60
2023-05-20T12:52:25.727Z,54.60
2023-05-20T12:54:57.970Z,54.60
2023-05-20T12:57:27.907Z,54.80
2023-05-20T12:59:58.379Z,55.00
2023-05-20T13:02:28.288Z,55.00
2023-05-20T13:04:58.212Z,55.00
2023-05-20T13:07:28.670Z,55.00
2023-05-20T13:09:58.361Z,55.10
2023-05-20T13:12:28.132Z,55.20
2023-05-20T13:14:57.782Z,55.30
2023-05-20T13:17:27.377Z,55.30
2023-05-20T13:19:58.141Z,55.30
2023-05-20T13:22:27.846Z,55.40
2023-05-20T13:24:57.573Z,55.50
2023-05-20T13:27:27.457Z,55.70
2023-05-20T13:29:57.235Z,55.80
2023-05-20T13:32:27.124Z,56.10
2023-05-20T13:35:01.888Z,56.10
2023-05-20T13:37:31.927Z,56.10
2023-05-20T13:40:01.645Z,56.00
2023-05-20T13:42:31.292Z,56.00
2023-05-20T13:45:00.939Z,56.10
2023-05-20T13:47:30.608Z,56.20
2023-05-20T13:50:02.640Z,56.40
2023-05-20T13:52:32.911Z,56.50
2023-05-20T13:55:02.581Z,56.70
2023-05-20T13:57:32.247Z,56.80
2023-05-20T14:00:02.013Z,57.00
2023-05-20T14:02:31.852Z,57.10
2023-05-20T14:05:01.485Z,57.20
2023-05-20T14:07:31.289Z,57.30
2023-05-20T14:10:00.896Z,57.50
2023-05-20T14:12:30.711Z,57.60
2023-05-20T14:15:00.750Z,57.90
2023-05-20T14:17:30.416Z,58.10
2023-05-20T14:20:00.038Z,58.40
2023-05-20T14:22:29.697Z,58.60
2023-05-20T14:24:59.943Z,58.80
2023-05-20T14:27:29.946Z,59.00
2023-05-20T14:29:59.487Z,59.20
2023-05-20T14:32:31.687Z,59.20
2023-05-20T14:35:01.783Z,59.40
2023-05-20T14:37:31.393Z,59.60
2023-05-20T14:40:03.930Z,59.70
2023-05-20T14:42:33.534Z,59.80
2023-05-20T14:45:03.253Z,59.70
2023-05-20T14:47:33.143Z,59.90
2023-05-20T14:50:02.957Z,59.90
2023-05-20T14:52:32.599Z,59.80
2023-05-20T14:55:02.356Z,59.80
2023-05-20T14:57:33.721Z,59.80
2023-05-20T15:00:03.411Z,59.80
2023-05-20T15:02:33.163Z,60.00
2023-05-20T15:05:03.054Z,60.10
2023-05-20T15:07:33.178Z,60.60
2023-05-20T15:10:02.826Z,61.60
2023-05-20T15:12:32.449Z,61.90
2023-05-20T15:15:02.184Z,62.30
2023-05-20T15:17:31.933Z,62.20
2023-05-20T15:20:01.948Z,62.20
2023-05-20T15:22:31.974Z,62.10
2023-05-20T15:25:01.721Z,62.10
2023-05-20T15:27:31.476Z,62.20
2023-05-20T15:30:01.158Z,62.40
2023-05-20T15:32:30.844Z,62.50
2023-05-20T15:35:01.904Z,62.70
2023-05-20T15:37:32.449Z,63.20
2023-05-20T15:40:02.242Z,63.40
2023-05-20T15:42:32.217Z,63.40
2023-05-20T15:45:01.802Z,63.30
2023-05-20T15:47:31.414Z,63.30
2023-05-20T15:50:01.774Z,63.50
2023-05-20T15:52:31.796Z,63.50
2023-05-20T15:55:02.240Z,63.50
2023-05-20T15:57:32.317Z,63.60
2023-05-20T16:00:02.413Z,63.50
2023-05-20T16:02:36.071Z,63.70
2023-05-20T16:05:06.879Z,63.40
2023-05-20T16:07:36.518Z,63.50
2023-05-20T16:10:06.851Z,63.70
2023-05-20T16:12:39.491Z,63.60
2023-05-20T16:15:09.961Z,63.50
2023-05-20T16:17:40.002Z,63.60
2023-05-20T16:20:10.709Z,63.90
2023-05-20T16:22:40.345Z,64.20
2023-05-20T16:25:10.657Z,64.20
2023-05-20T16:27:40.624Z,64.70
2023-05-20T16:30:10.819Z,65.00
2023-05-20T16:32:41.376Z,66.10
2023-05-20T16:35:11.516Z,66.90
2023-05-20T16:37:41.189Z,66.20
2023-05-20T16:40:11.384Z,66.30
2023-05-20T16:42:41.490Z,66.80
2023-05-20T16:45:11.661Z,65.70
2023-05-20T16:47:41.390Z,66.00
2023-05-20T16:50:11.740Z,65.90
2023-05-20T16:52:41.716Z,66.50
2023-05-20T16:55:12.684Z,67.00
2023-05-20T16:57:42.607Z,67.10
2023-05-20T17:00:13.144Z,67.30
2023-05-20T17:02:43.137Z,67.70
2023-05-20T17:05:16.642Z,67.90
2023-05-20T17:07:46.511Z,68.10
2023-05-20T17:10:16.139Z,68.80
2023-05-20T17:12:45.714Z,68.30
2023-05-20T17:15:15.432Z,68.40
2023-05-20T17:17:45.083Z,68.20
2023-05-20T17:20:15.117Z,68.10
2023-05-20T17:22:44.765Z,68.20
2023-05-20T17:25:14.555Z,68.30
2023-05-20T17:27:44.358Z,68.40
2023-05-20T17:30:17.480Z,68.50
2023-05-20T17:32:50.518Z,68.50
2023-05-20T17:35:22.389Z,68.10
2023-05-20T17:37:52.090Z,68.50
2023-05-20T17:40:24.517Z,68.80
2023-05-20T17:42:54.174Z,68.90
2023-05-20T17:45:23.886Z,69.10
2023-05-20T17:47:53.756Z,68.90
2023-05-20T17:50:23.515Z,68.90
2023-05-20T17:52:53.404Z,69.10
2023-05-20T17:55:23.670Z,69.10
2023-05-20T17:57:55.129Z,69.10
2023-05-20T18:00:24.734Z,69.30
2023-05-20T18:02:58.036Z,69.50
2023-05-20T18:05:29.987Z,70.20
2023-05-20T18:07:59.748Z,70.70
2023-05-20T18:10:29.351Z,70.90
2023-05-20T18:12:58.909Z,70.70
2023-05-20T18:15:28.635Z,70.70
2023-05-20T18:17:58.375Z,70.70
2023-05-20T18:20:28.038Z,70.70
2023-05-20T18:23:00.200Z,70.80
2023-05-20T18:25:29.970Z,70.70
2023-05-20T18:27:59.625Z,70.50
2023-05-20T18:30:29.324Z,71.10
2023-05-20T18:32:59.123Z,71.70
2023-05-20T18:35:28.832Z,72.20
2023-05-20T18:37:58.529Z,72.60
2023-05-20T18:40:29.752Z,72.60
2023-05-20T18:43:00.069Z,72.60
2023-05-20T18:45:29.611Z,72.50
2023-05-20T18:48:01.523Z,72.20
2023-05-20T18:50:31.147Z,72.30
2023-05-20T18:53:04.576Z,72.30
2023-05-20T18:55:34.223Z,72.40
2023-05-20T18:58:03.866Z,73.00
2023-05-20T19:00:33.753Z,73.00
2023-05-20T19:03:03.576Z,73.00
2023-05-20T19:05:36.107Z,73.00
2023-05-20T19:08:07.409Z,73.20
2023-05-20T19:10:37.256Z,73.30
2023-05-20T19:13:06.851Z,73.30
2023-05-20T19:15:37.084Z,73.20
2023-05-20T19:18:07.307Z,73.00
2023-05-20T19:20:36.926Z,73.00
2023-05-20T19:23:06.524Z,72.90
2023-05-20T19:25:36.478Z,72.80
2023-05-20T19:28:06.643Z,72.80
2023-05-20T19:30:36.145Z,72.90
2023-05-20T19:33:07.192Z,73.10
2023-05-20T19:35:36.918Z,72.90
2023-05-20T19:38:10.380Z,73.00
2023-05-20T19:40:40.106Z,73.00
2023-05-20T19:43:09.707Z,73.30
2023-05-20T19:45:39.709Z,73.80
2023-05-20T19:48:09.732Z,73.60
2023-05-20T19:50:39.604Z,73.80
2023-05-20T19:53:09.496Z,74.20
2023-05-20T19:55:40.173Z,74.10
2023-05-20T19:58:09.795Z,74.70
2023-05-20T20:00:39.793Z,74.70
2023-05-20T20:03:09.478Z,74.80
2023-05-20T20:05:39.347Z,74.60
2023-05-20T20:08:09.095Z,74.50
2023-05-20T20:10:39.206Z,74.50
2023-05-20T20:13:08.804Z,74.80
2023-05-20T20:15:38.699Z,74.70
2023-05-20T20:18:08.489Z,74.60
2023-05-20T20:20:39.690Z,74.40
2023-05-20T20:23:10.299Z,74.40
2023-05-20T20:25:41.012Z,74.60
2023-05-20T20:28:12.826Z,74.60
2023-05-20T20:30:42.680Z,74.60
2023-05-20T20:33:12.946Z,74.60
2023-05-20T20:35:42.830Z,74.70
2023-05-20T20:38:12.504Z,74.80
2023-05-20T20:40:43.971Z,74.80
2023-05-20T20:43:21.204Z,74.80
2023-05-20T20:45:54.696Z,74.70
2023-05-20T20:48:28.579Z,74.90
2023-05-20T20:50:58.214Z,75.40
2023-05-20T20:53:28.493Z,75.20
2023-05-20T20:55:58.518Z,75.10
2023-05-20T20:58:28.360Z,75.20
2023-05-20T21:00:58.011Z,75.50
2023-05-20T21:03:28.116Z,75.60
2023-05-20T21:05:57.810Z,75.60
2023-05-20T21:08:29.474Z,75.60
2023-05-20T21:11:02.329Z,75.70
2023-05-20T21:13:33.102Z,75.50
2023-05-20T21:16:02.965Z,75.50
2023-05-20T21:18:32.589Z,75.40
2023-05-20T21:21:02.587Z,75.40
2023-05-20T21:23:32.500Z,75.40
2023-05-20T21:26:02.161Z,75.50
2023-05-20T21:28:32.434Z,75.90
2023-05-20T21:31:01.980Z,75.80
2023-05-20T21:33:31.668Z,76.00
2023-05-20T21:36:01.224Z,76.40
2023-05-20T21:38:30.813Z,76.50
2023-05-20T21:41:00.545Z,76.50
2023-05-20T21:43:30.960Z,76.40
2023-05-20T21:46:00.694Z,76.40
2023-05-20T21:48:30.279Z,77.00
2023-05-20T21:50:59.892Z,76.30
2023-05-20T21:53:29.775Z,76.50
2023-05-20T21:55:59.486Z,76.40
2023-05-20T21:58:29.328Z,76.50
2023-05-20T22:00:59.175Z,76.40
2023-05-20T22:03:28.947Z,76.50
2023-05-20T22:05:58.895Z,76.50
2023-05-20T22:08:29.863Z,76.40
2023-05-20T22:11:01.139Z,76.70
2023-05-20T22:13:31.712Z,77.20
2023-05-20T22:16:03.102Z,77.30
2023-05-20T22:18:33.361Z,77.40
2023-05-20T22:21:03.005Z,77.60
2023-05-20T22:23:32.735Z,78.10
2023-05-20T22:26:02.415Z,78.70
2023-05-20T22:28:32.070Z,78.90
2023-05-20T22:31:02.310Z,79.10
2023-05-20T22:33:31.927Z,79.20
2023-05-20T22:36:01.622Z,79.20
2023-05-20T22:38:32.487Z,80.10
2023-05-20T22:41:02.265Z,79.10
2023-05-20T22:43:32.121Z,79.20
2023-05-20T22:46:01.707Z,79.40
2023-05-20T22:48:32.188Z,79.90
2023-05-20T22:51:02.886Z,80.10
2023-05-20T22:53:33.074Z,80.20
2023-05-20T22:56:03.365Z,80.30
2023-05-20T22:58:41.028Z,80.30
2023-05-20T23:01:13.572Z,80.30
2023-05-20T23:03:43.380Z,80.20
2023-05-20T23:06:13.287Z,80.00
2023-05-20T23:08:46.198Z,79.90
2023-05-20T23:11:15.900Z,79.90
2023-05-20T23:13:45.646Z,79.90
2023-05-20T23:16:15.818Z,80.00
2023-05-20T23:18:45.625Z,80.40
2023-05-20T23:21:16.171Z,80.20
2023-05-20T23:23:45.778Z,80.10
2023-05-20T23:26:18.155Z,80.20
2023-05-20T23:28:47.855Z,80.20
2023-05-20T23:31:17.600Z,80.00
2023-05-20T23:33:50.046Z,80.10
2023-05-20T23:36:21.711Z,80.30
2023-05-20T23:38:53.795Z,80.30
2023-05-20T23:41:24.030Z,80.60
2023-05-20T23:43:53.797Z,80.70
2023-05-20T23:46:25.302Z,80.80
2023-05-20T23:48:55.392Z,80.60
2023-05-20T23:51:25.015Z,80.50
2023-05-20T23:53:54.920Z,80.30
2023-05-20T23:56:25.019Z,80.30
2023-05-20T23:58:54.711Z,80.10
